Time;durP1;ratioP1;P1;durP2;ratioP2;P2;SDS_P1;SDS_P2;PMS_P1;PMS_P2;Temp;Humidity;BMP_temperature;BMP_pressure;BME280_temperature;BME280_humidity;BME280_pressure;Samples;Min_cycle;Max_cycle;Signal;HPM_P1;HPM_P2
2022/01/09 00:00:29;;;;;;;14.90;6.30;;;;;;;-1.80;62.00;99590.33;25117;1315;3029667;-64
2022/01/09 00:03:01;;;;;;;18.50;6.20;;;;;;;-1.82;62.21;99593.95;25101;1313;3051935;-60
2022/01/09 00:05:30;;;;;;;12.30;4.60;;;;;;;-1.77;62.18;99589.62;25136;1313;3026740;-62
2022/01/09 00:07:59;;;;;;;14.30;4.80;;;;;;;-1.80;62.21;99587.92;25100;1313;3052340;-59
2022/01/09 00:10:30;;;;;;;11.80;5.50;;;;;;;-1.64;62.07;99598.61;25092;1313;3026796;-63
2022/01/09 00:12:59;;;;;;;14.80;6.40;;;;;;;-1.66;62.33;99593.99;25080;1313;3055654;-61
2022/01/09 00:15:28;;;;;;;11.40;5.20;;;;;;;-1.66;62.25;99587.63;25110;1313;3026764;-60
2022/01/09 00:17:57;;;;;;;14.10;4.70;;;;;;;-1.67;62.63;99584.89;25105;1313;3051430;-63
2022/01/09 00:20:26;;;;;;;13.10;4.40;;;;;;;-1.65;62.57;99578.35;25084;1313;3026244;-62
2022/01/09 00:22:56;;;;;;;16.50;4.90;;;;;;;-1.66;62.64;99576.14;25073;1313;3026906;-62
2022/01/09 00:25:25;;;;;;;12.20;5.20;;;;;;;-1.67;62.72;99570.66;25105;1315;3026861;-59
2022/01/09 00:27:54;;;;;;;16.30;3.90;;;;;;;-1.74;62.98;99566.91;25096;1313;3055399;-61
2022/01/09 00:30:23;;;;;;;12.30;4.70;;;;;;;-1.78;63.07;99567.82;25129;1313;3026576;-61
2022/01/09 00:32:52;;;;;;;15.20;5.00;;;;;;;-1.88;63.56;99563.44;25092;1313;3052389;-60
2022/01/09 00:35:22;;;;;;;12.20;4.50;;;;;;;-1.85;63.63;99557.92;25072;1315;3026458;-61
2022/01/09 00:37:51;;;;;;;14.50;4.10;;;;;;;-1.91;63.89;99553.16;25132;1313;3054458;-62
2022/01/09 00:40:20;;;;;;;9.60;4.20;;;;;;;-1.88;63.89;99551.59;25175;1313;3027352;-62
2022/01/09 00:42:49;;;;;;;12.20;5.60;;;;;;;-1.86;63.93;99550.54;25096;1313;3051413;-61
2022/01/09 00:45:18;;;;;;;10.50;4.40;;;;;;;-1.84;64.11;99552.92;25108;1313;3029246;-62
2022/01/09 00:47:47;;;;;;;14.20;4.90;;;;;;;-1.82;64.24;99552.39;25121;1315;3070244;-59
2022/01/09 00:50:16;;;;;;;11.10;4.80;;;;;;;-1.79;64.30;99539.66;25108;1313;3026342;-60
2022/01/09 00:52:45;;;;;;;13.70;5.50;;;;;;;-1.79;64.20;99534.01;25096;1313;3053720;-62
2022/01/09 00:55:14;;;;;;;21.20;5.90;;;;;;;-1.74;64.33;99527.42;25079;1313;3026296;-61
2022/01/09 00:57:44;;;;;;;13.20;4.20;;;;;;;-1.77;64.45;99519.55;25049;1313;3054848;-62
2022/01/09 01:00:13;;;;;;;12.50;4.70;;;;;;;-1.76;64.57;99517.48;25140;1315;3027864;-60
2022/01/09 01:02:42;;;;;;;11.40;5.50;;;;;;;-1.75;64.50;99512.66;25093;1315;3026318;-60
2022/01/09 01:05:12;;;;;;;14.30;5.80;;;;;;;-1.84;64.92;99502.45;25113;1315;3026799;-59
2022/01/09 01:07:41;;;;;;;12.80;3.70;;;;;;;-1.83;65.05;99497.80;25091;1315;3027072;-61
2022/01/09 01:10:30;;;;;;;13.80;4.00;;;;;;;-1.82;65.35;99495.22;25109;1315;3051803;-63
2022/01/09 01:12:59;;;;;;;11.30;4.40;;;;;;;-1.89;65.79;99487.03;25095;1315;3027150;-60
2022/01/09 01:15:59;;;;;;;10.60;5.00;;;;;;;-1.75;65.50;99481.23;31626;1315;3026034;-60
2022/01/09 01:18:28;;;;;;;16.10;6.60;;;;;;;-1.53;65.13;99472.06;25023;1318;3026010;-58
2022/01/09 01:21:01;;;;;;;17.00;6.10;;;;;;;-1.34;64.67;99467.54;25087;1318;3026586;-61
2022/01/09 01:23:30;;;;;;;20.30;4.80;;;;;;;-1.42;64.89;99463.00;25045;1318;3030014;-59
2022/01/09 01:26:01;;;;;;;13.90;5.10;;;;;;;-1.53;65.37;99451.79;25031;1317;3054968;-61
2022/01/09 01:28:31;;;;;;;14.10;5.40;;;;;;;-1.67;65.87;99442.67;24756;1316;3431299;-60
2022/01/09 01:31:00;;;;;;;14.30;4.50;;;;;;;-1.72;66.57;99440.85;25116;1315;3028861;-61
2022/01/09 01:33:29;;;;;;;17.70;5.60;;;;;;;-1.71;66.77;99441.35;25089;1315;3026024;-61
2022/01/09 01:35:57;;;;;;;15.10;4.80;;;;;;;-1.79;67.14;99442.80;25090;1315;3053442;-59
2022/01/09 01:38:27;;;;;;;19.70;6.40;;;;;;;-1.72;67.14;99440.50;25087;1315;3026915;-60
2022/01/09 01:40:58;;;;;;;14.20;6.20;;;;;;;-1.72;67.26;99440.33;25109;1315;3054270;-59
2022/01/09 01:43:27;;;;;;;20.40;7.80;;;;;;;-1.75;67.51;99436.23;25114;1315;3028150;-62
2022/01/09 01:45:56;;;;;;;21.20;7.80;;;;;;;-1.81;68.18;99434.93;25080;1315;3026315;-61
2022/01/09 01:48:25;;;;;;;16.30;7.10;;;;;;;-1.76;68.40;99437.45;25088;1315;3054366;-60
2022/01/09 01:50:55;;;;;;;20.30;7.10;;;;;;;-1.75;68.71;99433.34;25099;1315;3026845;-60
2022/01/09 01:53:24;;;;;;;26.50;8.10;;;;;;;-1.73;68.77;99434.50;25137;1315;3048259;-58
2022/01/09 01:55:56;;;;;;;21.50;9.10;;;;;;;-1.71;69.22;99438.59;25101;1315;3028415;-59
2022/01/09 01:58:26;;;;;;;24.30;8.60;;;;;;;-1.66;69.16;99427.04;25090;1315;3026433;-61
2022/01/09 02:00:55;;;;;;;21.30;7.60;;;;;;;-1.66;69.29;99425.14;25117;1315;3027805;-60
2022/01/09 02:03:24;;;;;;;24.50;8.50;;;;;;;-1.66;69.66;99418.44;25070;1315;3026350;-61
2022/01/09 02:05:53;;;;;;;26.20;9.30;;;;;;;-1.64;69.83;99416.37;25116;1315;3053762;-62
2022/01/09 02:08:22;;;;;;;22.80;7.40;;;;;;;-1.62;70.08;99408.45;25083;1315;3026675;-62
2022/01/09 02:10:51;;;;;;;22.50;8.30;;;;;;;-1.65;70.46;99402.48;25069;1315;3050278;-60
2022/01/09 02:13:21;;;;;;;21.90;8.50;;;;;;;-1.56;70.27;99392.40;25070;1315;3026695;-61
2022/01/09 02:15:50;;;;;;;30.30;9.30;;;;;;;-1.57;70.54;99388.27;25071;1315;3027942;-63
2022/01/09 02:18:20;;;;;;;33.60;9.70;;;;;;;-1.52;70.75;99386.84;25052;1315;3026342;-58
2022/01/09 02:20:50;;;;;;;25.80;8.50;;;;;;;-1.56;71.05;99384.48;25096;1315;3052222;-59
2022/01/09 02:23:19;;;;;;;27.90;8.20;;;;;;;-1.67;72.08;99380.50;25112;1315;3026885;-62
2022/01/09 02:25:48;;;;;;;35.20;8.30;;;;;;;-1.59;71.85;99382.30;25098;1315;3026351;-61
2022/01/09 02:28:17;;;;;;;27.60;8.00;;;;;;;-1.03;71.05;99375.85;25075;1314;3051151;-60
2022/01/09 02:30:46;;;;;;;22.50;8.10;;;;;;;-0.38;69.05;99370.35;25067;1315;3029450;-60
2022/01/09 02:33:16;;;;;;;27.90;8.20;;;;;;;-0.33;68.21;99360.96;25105;1315;3052850;-61
2022/01/09 02:35:49;;;;;;;27.30;8.20;;;;;;;-0.40;68.44;99356.11;25129;1315;3026730;-60
2022/01/09 02:38:19;;;;;;;20.80;7.60;;;;;;;-0.52;68.93;99356.99;25089;1315;3028295;-60
2022/01/09 02:40:52;;;;;;;27.70;9.50;;;;;;;-0.70;69.35;99354.89;25098;1315;3028731;-60
2022/01/09 02:43:21;;;;;;;26.10;8.10;;;;;;;-0.85;70.18;99351.52;25100;1315;3025990;-62
2022/01/09 02:46:00;;;;;;;29.90;9.40;;;;;;;-0.97;70.40;99350.84;25130;1315;3027350;-59
2022/01/09 02:48:36;;;;;;;21.40;6.70;;;;;;;-1.02;70.90;99348.86;25119;1315;3068177;-62
2022/01/09 02:51:24;;;;;;;29.00;9.00;;;;;;;-1.13;71.00;99345.41;25086;1315;3049267;-61
2022/01/09 02:54:07;;;;;;;26.90;10.80;;;;;;;-1.14;71.21;99344.06;25133;1315;3055013;-61
2022/01/09 02:56:37;;;;;;;32.00;8.90;;;;;;;-1.12;71.00;99346.26;25153;1314;3054063;-62
2022/01/09 02:59:06;;;;;;;26.60;8.00;;;;;;;-1.18;71.34;99348.41;25130;1315;3028392;-59
2022/01/09 03:01:35;;;;;;;19.00;7.00;;;;;;;-1.11;71.06;99342.98;25112;1315;3052262;-59
2022/01/09 03:04:04;;;;;;;24.20;8.10;;;;;;;-1.15;71.18;99343.38;25088;1315;3026413;-62
2022/01/09 03:06:35;;;;;;;24.20;7.90;;;;;;;-1.15;71.46;99338.39;25078;1315;3053258;-62
2022/01/09 03:09:06;;;;;;;24.30;8.30;;;;;;;-1.22;72.11;99326.98;25098;1315;3026850;-61
2022/01/09 03:11:38;;;;;;;28.10;8.00;;;;;;;-1.22;72.05;99331.61;25078;1315;3071563;-64
2022/01/09 03:14:09;;;;;;;25.60;9.50;;;;;;;-1.12;71.99;99328.55;25091;1315;3026521;-60
2022/01/09 03:16:38;;;;;;;26.30;8.80;;;;;;;-1.26;72.64;99317.77;25088;1315;3026881;-61
2022/01/09 03:19:07;;;;;;;25.70;8.30;;;;;;;-1.25;72.94;99311.39;25100;1315;3026582;-61
2022/01/09 03:21:36;;;;;;;32.60;9.90;;;;;;;-1.20;72.94;99308.38;25103;1315;3048666;-62
2022/01/09 03:24:05;;;;;;;22.90;8.00;;;;;;;-1.14;73.00;99309.84;25091;1315;3028341;-61
2022/01/09 03:26:36;;;;;;;20.00;6.60;;;;;;;-0.59;71.45;99298.10;25100;1315;3071653;-61
2022/01/09 03:29:05;;;;;;;25.90;7.10;;;;;;;0.03;69.46;99296.07;25082;1315;3026486;-60
2022/01/09 03:31:35;;;;;;;24.50;8.10;;;;;;;0.12;68.61;99292.27;25100;1315;3050330;-62
2022/01/09 03:34:04;;;;;;;21.70;7.60;;;;;;;-0.02;68.63;99292.02;25067;1315;3026981;-63
2022/01/09 03:36:33;;;;;;;24.60;8.20;;;;;;;-0.12;68.85;99289.83;25106;1315;3027047;-60
2022/01/09 03:39:02;;;;;;;18.00;7.40;;;;;;;-0.32;69.59;99283.33;25080;1315;3050769;-61
2022/01/09 03:41:31;;;;;;;28.00;7.80;;;;;;;-0.45;69.93;99284.60;25075;1315;3026662;-63
2022/01/09 03:44:00;;;;;;;28.60;10.20;;;;;;;-0.56;70.24;99287.73;25079;1315;3054045;-62
2022/01/09 03:46:29;;;;;;;21.20;7.70;;;;;;;-0.64;70.67;99288.38;25092;1315;3026791;-61
2022/01/09 03:48:58;;;;;;;18.90;7.40;;;;;;;-0.73;70.93;99295.42;25079;1315;3049845;-63
2022/01/09 03:51:32;;;;;;;21.10;8.60;;;;;;;-0.84;71.06;99295.45;25090;1315;3027297;-62
2022/01/09 03:54:02;;;;;;;21.30;9.00;;;;;;;-0.88;71.23;99292.40;25083;1315;3055168;-62
2022/01/09 03:56:32;;;;;;;20.10;8.40;;;;;;;-0.87;71.54;99285.69;25093;1315;3026666;-59
2022/01/09 03:59:01;;;;;;;19.10;8.30;;;;;;;-1.02;71.92;99281.64;25083;1315;3027319;-62
2022/01/09 04:01:30;;;;;;;18.30;8.10;;;;;;;-0.91;71.40;99279.05;25075;1315;3026597;-62
2022/01/09 04:03:59;;;;;;;20.90;8.30;;;;;;;-0.97;71.63;99286.71;25091;1315;3026750;-61
2022/01/09 04:06:28;;;;;;;18.40;7.30;;;;;;;-0.88;71.36;99286.91;25080;1315;3055240;-62
2022/01/09 04:09:06;;;;;;;22.40;8.40;;;;;;;-0.86;71.19;99281.73;25083;1315;3026572;-60
2022/01/09 04:11:40;;;;;;;18.80;8.00;;;;;;;-0.90;71.22;99281.08;25074;1315;3049814;-62
2022/01/09 04:14:08;;;;;;;21.70;7.40;;;;;;;-0.95;71.38;99278.77;25091;1315;3053150;-61
2022/01/09 04:16:38;;;;;;;17.80;7.50;;;;;;;-0.95;71.13;99271.38;25090;1315;3026891;-62
2022/01/09 04:19:12;;;;;;;16.30;7.90;;;;;;;-0.94;71.01;99260.70;25102;1315;3027892;-60
2022/01/09 04:21:42;;;;;;;;;;;;;;;-1.04;71.47;99253.98;25123;1315;3053259;-62
2022/01/09 04:24:11;;;;;;;23.80;7.80;;;;;;;-1.01;71.36;99260.13;25084;1315;3026648;-61
2022/01/09 04:26:40;;;;;;;19.40;8.00;;;;;;;-0.99;71.51;99259.40;25064;1315;3026934;-62
2022/01/09 04:29:09;;;;;;;17.80;8.10;;;;;;;-0.91;71.13;99254.63;25107;1315;3055834;-62
2022/01/09 04:31:38;;;;;;;21.70;7.60;;;;;;;-0.93;71.00;99262.40;25084;1315;3027080;-64
2022/01/09 04:34:07;;;;;;;19.40;9.10;;;;;;;-0.88;70.94;99258.52;25071;1315;3048868;-61
2022/01/09 04:36:36;;;;;;;14.80;6.80;;;;;;;-0.96;71.08;99257.28;25092;1314;3026636;-61
2022/01/09 04:39:05;;;;;;;18.40;8.80;;;;;;;-0.88;70.54;99250.09;25075;1315;3056013;-60
2022/01/09 04:41:34;;;;;;;19.30;8.50;;;;;;;-0.92;70.79;99252.06;25108;1315;3026935;-61
2022/01/09 04:44:03;;;;;;;16.70;7.70;;;;;;;-0.96;70.98;99254.73;25082;1315;3051159;-61
2022/01/09 04:46:42;;;;;;;14.80;7.40;;;;;;;-0.96;70.79;99255.39;25066;1315;3026579;-60
2022/01/09 04:49:11;;;;;;;15.70;6.70;;;;;;;-0.89;70.33;99252.70;25079;1315;3049987;-61
2022/01/09 04:51:40;;;;;;;20.10;7.60;;;;;;;-1.00;70.56;99244.63;25094;1315;3026768;-61
2022/01/09 04:54:09;;;;;;;17.20;7.50;;;;;;;-0.98;70.53;99239.10;25084;1315;3054205;-61
2022/01/09 04:56:39;;;;;;;23.10;10.00;;;;;;;-1.01;70.57;99244.48;25083;1315;3028478;-64
2022/01/09 04:59:08;;;;;;;21.40;9.10;;;;;;;-0.92;70.68;99241.05;25072;1315;3027098;-62
2022/01/09 05:01:37;;;;;;;17.40;8.40;;;;;;;-0.97;70.77;99235.30;25105;1315;3058424;-64
2022/01/09 05:04:06;;;;;;;21.30;9.10;;;;;;;-0.90;70.55;99237.59;25068;1315;3026360;-62
2022/01/09 05:06:35;;;;;;;19.50;8.90;;;;;;;-1.00;70.99;99238.97;25100;1315;3052529;-62
2022/01/09 05:09:04;;;;;;;17.50;7.80;;;;;;;-0.97;70.76;99234.27;25064;1315;3026028;-62
2022/01/09 05:11:34;;;;;;;14.10;7.00;;;;;;;-0.91;70.74;99239.32;25103;1315;3054757;-63
2022/01/09 05:14:03;;;;;;;19.40;8.20;;;;;;;-0.93;70.93;99241.92;25094;1315;3026909;-62
2022/01/09 05:16:32;;;;;;;19.40;9.50;;;;;;;-0.89;70.79;99242.20;25075;1315;3051550;-59
2022/01/09 05:19:05;;;;;;;18.60;8.90;;;;;;;-0.93;71.12;99241.95;25130;1315;3026608;-61
2022/01/09 05:21:34;;;;;;;13.40;7.00;;;;;;;-0.97;71.14;99245.27;25075;1315;3068514;-64
2022/01/09 05:24:03;;;;;;;11.70;5.80;;;;;;;-0.99;71.13;99247.38;25086;1315;3026432;-60
2022/01/09 05:26:33;;;;;;;13.30;6.10;;;;;;;-0.99;71.44;99245.98;25089;1315;3052988;-60
2022/01/09 05:29:02;;;;;;;19.40;8.30;;;;;;;-0.55;70.31;99236.08;25117;1315;3026567;-60
2022/01/09 05:31:31;;;;;;;14.80;7.70;;;;;;;0.12;68.33;99235.23;25053;1315;3054830;-61
2022/01/09 05:34:00;;;;;;;17.50;7.50;;;;;;;0.37;67.03;99235.23;25098;1315;3026610;-63
2022/01/09 05:36:29;;;;;;;16.60;6.80;;;;;;;0.36;66.99;99226.97;25073;1315;3049374;-57
2022/01/09 05:38:58;;;;;;;19.10;8.40;;;;;;;0.22;67.33;99221.11;25069;1315;3027019;-60
2022/01/09 05:41:27;;;;;;;23.90;11.40;;;;;;;0.10;67.56;99210.84;25091;1315;3058226;-60
2022/01/09 05:43:56;;;;;;;21.90;9.90;;;;;;;-0.08;68.24;99204.52;25113;1315;3026846;-63
2022/01/09 05:46:25;;;;;;;20.30;9.40;;;;;;;-0.16;68.61;99193.32;25090;1315;3054213;-63
2022/01/09 05:48:53;;;;;;;17.80;8.40;;;;;;;-0.28;69.06;99197.53;25122;1315;3027217;-60
2022/01/09 05:51:23;;;;;;;17.10;9.30;;;;;;;-0.39;69.47;99190.52;25112;1316;3054740;-66
2022/01/09 05:53:52;;;;;;;19.60;9.70;;;;;;;-0.48;70.19;99180.55;25066;1315;3028076;-64
2022/01/09 05:56:22;;;;;;;20.30;8.10;;;;;;;-0.53;70.18;99180.14;25034;1315;3049721;-65
2022/01/09 05:58:51;;;;;;;19.30;9.00;;;;;;;-0.60;70.79;99185.25;25108;1315;3026795;-63
2022/01/09 06:01:20;;;;;;;21.80;10.00;;;;;;;-0.61;70.88;99187.87;25076;1316;3069138;-59
2022/01/09 06:03:52;;;;;;;19.50;8.30;;;;;;;-0.59;70.84;99183.17;25098;1315;3027058;-58
2022/01/09 06:06:21;;;;;;;16.30;8.10;;;;;;;-0.55;70.66;99180.35;25094;1315;3026330;-58
2022/01/09 06:08:50;;;;;;;20.40;9.60;;;;;;;-0.59;71.20;99178.02;25063;1315;3070450;-63
2022/01/09 06:11:19;;;;;;;13.60;6.50;;;;;;;-0.61;71.33;99177.89;25061;1315;3026724;-61
2022/01/09 06:13:48;;;;;;;13.00;7.20;;;;;;;-0.69;71.51;99169.61;25098;1315;3052950;-58
2022/01/09 06:16:17;;;;;;;14.30;6.40;;;;;;;-0.63;71.46;99175.34;25100;1315;3028264;-61
2022/01/09 06:18:46;;;;;;;12.20;6.30;;;;;;;-0.59;71.40;99169.58;25095;1317;3055403;-63
2022/01/09 06:21:18;;;;;;;17.80;8.10;;;;;;;-0.67;71.69;99165.60;25110;1315;3026727;-62
2022/01/09 06:23:47;;;;;;;12.90;6.80;;;;;;;-0.70;71.86;99152.42;25090;1315;3027540;-62
2022/01/09 06:26:16;;;;;;;14.80;7.70;;;;;;;-0.70;72.06;99155.36;25085;1318;3026435;-62
2022/01/09 06:28:45;;;;;;;18.10;9.70;;;;;;;-0.71;72.40;99149.36;25091;1315;3051313;-63
2022/01/09 06:31:14;;;;;;;13.60;7.20;;;;;;;-0.06;71.23;99148.51;25070;1315;3027317;-63
2022/01/09 06:33:44;;;;;;;15.10;7.70;;;;;;;0.66;68.76;99143.52;25162;1315;3054714;-62
2022/01/09 06:36:13;;;;;;;17.90;9.40;;;;;;;0.73;68.23;99150.27;25091;1315;3026625;-61
2022/01/09 06:38:42;;;;;;;15.70;8.60;;;;;;;0.66;68.14;99153.35;25068;1315;3049321;-60
2022/01/09 06:41:11;;;;;;;17.90;7.60;;;;;;;0.40;68.78;99152.96;25086;1315;3027126;-62
2022/01/09 06:43:40;;;;;;;10.70;5.40;;;;;;;0.18;69.31;99155.20;25109;1315;3059087;-60
2022/01/09 06:46:10;;;;;;;13.40;6.60;;;;;;;0.20;69.50;99153.09;25095;1318;3027597;-60
2022/01/09 06:48:39;;;;;;;13.80;6.90;;;;;;;0.04;70.34;99156.71;25083;1315;3053381;-62
2022/01/09 06:51:10;;;;;;;12.20;5.90;;;;;;;-0.04;70.60;99157.92;25090;1315;3026661;-62
2022/01/09 06:53:39;;;;;;;13.00;6.80;;;;;;;-0.17;71.10;99154.59;25063;1315;3054421;-63
2022/01/09 06:56:07;;;;;;;15.70;6.40;;;;;;;-0.26;72.02;99155.47;25068;1315;3027068;-60
2022/01/09 06:58:39;;;;;;;12.30;6.20;;;;;;;-0.33;72.52;99151.34;25087;1315;3048498;-60
2022/01/09 07:01:08;;;;;;;11.30;5.90;;;;;;;-0.29;72.22;99151.25;25093;1315;3030065;-64
2022/01/09 07:03:37;;;;;;;14.20;7.00;;;;;;;-0.27;72.31;99143.27;25094;1315;3026493;-61
2022/01/09 07:06:06;;;;;;;17.40;7.40;;;;;;;-0.43;73.54;99145.85;25078;1315;3050980;-63
2022/01/09 07:08:35;;;;;;;15.60;6.20;;;;;;;-0.45;73.66;99144.86;25096;1315;3027062;-58
2022/01/09 07:11:05;;;;;;;16.10;7.00;;;;;;;0.12;72.43;99152.04;25052;1315;3070207;-61
2022/01/09 07:13:34;;;;;;;12.60;4.90;;;;;;;0.67;70.46;99150.73;25094;1315;3028289;-62
2022/01/09 07:16:03;;;;;;;10.70;4.60;;;;;;;0.85;69.17;99152.70;25081;1315;3054771;-60
2022/01/09 07:18:44;;;;;;;11.00;5.40;;;;;;;0.87;69.01;99144.02;25097;1315;3071578;-63
2022/01/09 07:21:14;;;;;;;12.20;6.00;;;;;;;0.80;69.46;99134.38;25106;1315;3026693;-60
2022/01/09 07:23:42;;;;;;;10.40;5.70;;;;;;;0.57;70.27;99124.45;25108;1315;3050432;-60
2022/01/09 07:26:11;;;;;;;14.30;6.90;;;;;;;0.43;70.92;99128.05;25061;1318;3026491;-61
2022/01/09 07:28:40;;;;;;;15.70;7.80;;;;;;;0.28;71.63;99118.97;25110;1315;3054317;-60
2022/01/09 07:31:09;;;;;;;12.40;7.10;;;;;;;0.08;72.33;99116.15;25085;1315;3027040;-61
2022/01/09 07:33:38;;;;;;;16.80;6.20;;;;;;;0.03;72.51;99110.08;25085;1315;3049330;-60
2022/01/09 07:36:07;;;;;;;16.10;7.80;;;;;;;-0.01;72.93;99113.78;25083;1315;3027591;-61
2022/01/09 07:38:36;;;;;;;15.50;8.30;;;;;;;0.02;73.23;99108.91;25100;1315;3058187;-59
2022/01/09 07:41:05;;;;;;;19.40;9.00;;;;;;;0.00;73.74;99108.25;25069;1315;3026504;-63
2022/01/09 07:43:35;;;;;;;18.10;9.20;;;;;;;-0.11;74.31;99107.98;25073;1315;3053263;-63
2022/01/09 07:46:03;;;;;;;17.90;9.40;;;;;;;-0.15;74.77;99107.56;25105;1318;3027310;-62
2022/01/09 07:48:33;;;;;;;15.20;7.80;;;;;;;0.46;73.80;99108.34;25080;1313;3053961;-63
2022/01/09 07:51:02;;;;;;;17.50;8.00;;;;;;;1.09;71.85;99109.11;25082;1315;3026607;-66
2022/01/09 07:53:31;;;;;;;17.70;9.50;;;;;;;1.31;71.16;99102.80;25076;1315;3048193;-61
2022/01/09 07:56:00;;;;;;;18.70;10.20;;;;;;;1.21;71.05;99092.57;25095;1315;3026132;-63
2022/01/09 07:58:30;;;;;;;22.60;11.80;;;;;;;1.10;71.25;99085.96;25075;1315;3070268;-64
2022/01/09 08:00:58;;;;;;;16.70;9.80;;;;;;;0.89;71.71;99098.80;25076;1315;3026402;-64
2022/01/09 08:03:27;;;;;;;17.30;9.20;;;;;;;0.72;72.26;99090.46;25094;1315;3050372;-61
2022/01/09 08:05:57;;;;;;;18.50;10.10;;;;;;;0.59;72.76;99094.59;25073;1315;3026858;-65
2022/01/09 08:08:26;;;;;;;14.10;8.00;;;;;;;0.57;73.28;99087.02;25066;1315;3026326;-62
2022/01/09 08:10:55;;;;;;;15.20;8.30;;;;;;;0.46;73.53;99089.91;25144;1318;3026588;-61
2022/01/09 08:13:24;;;;;;;16.00;7.10;;;;;;;0.46;73.29;99093.70;25093;1318;3027520;-61
2022/01/09 08:15:56;;;;;;;13.50;6.40;;;;;;;0.35;73.59;99090.34;25100;1315;3051409;-63
2022/01/09 08:18:25;;;;;;;11.10;6.00;;;;;;;0.36;73.70;99091.05;25115;1315;3027018;-61
2022/01/09 08:20:54;;;;;;;11.90;5.90;;;;;;;0.36;73.53;99088.26;25074;1318;3069652;-63
2022/01/09 08:23:23;;;;;;;15.90;6.70;;;;;;;0.35;73.47;99085.88;25103;1315;3028998;-61
2022/01/09 08:25:52;;;;;;;17.70;6.60;;;;;;;0.34;73.79;99080.05;25091;1315;3050559;-65
2022/01/09 08:28:21;;;;;;;11.20;5.60;;;;;;;0.79;72.90;99073.34;25060;1315;3026742;-61
2022/01/09 08:30:50;;;;;;;12.00;5.30;;;;;;;1.48;70.56;99059.52;25103;1318;3052914;-61
2022/01/09 08:33:24;;;;;;;14.40;5.70;;;;;;;1.68;69.55;99056.34;25100;1315;3026401;-60
2022/01/09 08:35:55;;;;;;;14.90;6.40;;;;;;;1.61;69.80;99051.54;25059;1315;3049067;-62
2022/01/09 08:38:25;;;;;;;21.20;8.00;;;;;;;1.42;70.12;99055.55;25096;1317;3026669;-60
2022/01/09 08:40:54;;;;;;;14.80;7.30;;;;;;;1.18;71.21;99054.19;25093;1315;3027523;-63
2022/01/09 08:43:23;;;;;;;19.80;8.00;;;;;;;1.07;71.63;99046.39;25071;1315;3026842;-62
2022/01/09 08:45:52;;;;;;;18.40;8.50;;;;;;;0.86;72.45;99032.83;25110;1315;3054757;-62
2022/01/09 08:48:21;;;;;;;16.30;8.20;;;;;;;0.78;72.66;99029.42;25090;1315;3028217;-58
2022/01/09 08:50:50;;;;;;;16.70;8.50;;;;;;;0.70;72.73;99032.91;25071;1315;3053502;-61
2022/01/09 08:53:19;;;;;;;14.70;7.60;;;;;;;0.61;73.26;99022.48;25102;1315;3026432;-62
2022/01/09 08:55:48;;;;;;;14.20;6.80;;;;;;;0.60;73.15;99018.36;25080;1315;3057053;-63
2022/01/09 08:58:17;;;;;;;18.40;7.90;;;;;;;0.62;73.24;99021.59;25073;1315;3026428;-61
2022/01/09 09:00:46;;;;;;;20.60;8.30;;;;;;;0.48;74.10;99030.41;25101;1315;3052219;-63
2022/01/09 09:03:15;;;;;;;14.50;7.40;;;;;;;0.50;74.21;99026.04;25086;1315;3026359;-63
2022/01/09 09:05:44;;;;;;;14.10;6.20;;;;;;;0.45;74.35;99024.11;25081;1315;3051249;-62
2022/01/09 09:08:13;;;;;;;13.80;6.50;;;;;;;1.08;73.00;99022.36;25075;1315;3026550;-62
2022/01/09 09:10:42;;;;;;;14.00;6.50;;;;;;;1.73;70.61;99013.18;25079;1318;3048557;-62
2022/01/09 09:13:11;;;;;;;15.90;6.70;;;;;;;1.85;69.72;99009.86;25092;1315;3026298;-63
2022/01/09 09:15:40;;;;;;;13.80;6.40;;;;;;;1.71;70.08;99002.02;25071;1315;3070726;-60
2022/01/09 09:18:09;;;;;;;15.90;7.50;;;;;;;1.62;70.23;99001.08;25090;1315;3026495;-62
2022/01/09 09:20:38;;;;;;;18.10;7.10;;;;;;;1.37;71.01;99001.15;25107;1315;3053062;-61
2022/01/09 09:23:08;;;;;;;14.80;7.80;;;;;;;1.26;71.36;98991.48;25070;1315;3026763;-62
2022/01/09 09:25:38;;;;;;;16.60;7.50;;;;;;;1.11;72.58;98985.73;25113;1315;3026085;-63
2022/01/09 09:28:07;;;;;;;18.20;9.80;;;;;;;1.05;72.77;98978.64;25088;1314;3026419;-63
2022/01/09 09:30:36;;;;;;;21.10;10.00;;;;;;;1.05;73.05;98983.14;25068;1315;3070985;-61
2022/01/09 09:33:05;;;;;;;18.60;9.50;;;;;;;1.00;73.10;98977.59;25099;1315;3026891;-61
2022/01/09 09:35:35;;;;;;;22.80;12.10;;;;;;;0.82;73.64;98982.41;25092;1315;3054365;-66
2022/01/09 09:38:04;;;;;;;22.40;11.60;;;;;;;0.77;74.09;98981.88;25085;1315;3027361;-66
2022/01/09 09:40:34;;;;;;;21.70;10.10;;;;;;;0.71;74.20;98967.91;25078;1315;3026607;-65
2022/01/09 09:43:03;;;;;;;20.40;10.20;;;;;;;0.78;74.66;98963.39;25054;1315;3027217;-64
2022/01/09 09:45:32;;;;;;;19.30;9.50;;;;;;;1.26;73.29;98958.86;25092;1315;3067478;-61
2022/01/09 09:48:00;;;;;;;26.30;9.70;;;;;;;1.92;71.01;98951.59;25106;1315;3026752;-66
2022/01/09 09:50:29;;;;;;;24.10;11.20;;;;;;;1.98;70.01;98940.88;25094;1315;3051214;-62
2022/01/09 09:52:59;;;;;;;19.80;10.90;;;;;;;1.86;70.18;98941.77;25097;1315;3026845;-64
2022/01/09 09:55:29;;;;;;;25.50;12.30;;;;;;;1.70;71.02;98933.67;25077;1315;3055568;-66
2022/01/09 09:57:58;;;;;;;22.80;10.90;;;;;;;1.50;71.77;98928.46;25069;1315;3029920;-62
2022/01/09 10:00:27;;;;;;;23.90;12.50;;;;;;;1.33;72.29;98928.29;25078;1315;3051716;-63
2022/01/09 10:03:00;;;;;;;28.30;13.10;;;;;;;1.24;73.06;98928.21;25106;1315;3028156;-64
2022/01/09 10:05:34;;;;;;;23.30;11.90;;;;;;;1.17;73.41;98927.58;25108;1315;3027586;-65
2022/01/09 10:08:12;;;;;;;24.20;12.20;;;;;;;1.12;73.61;98926.52;25105;1315;3070469;-60
2022/01/09 10:10:42;;;;;;;22.40;11.80;;;;;;;1.00;74.11;98928.94;25074;1315;3049248;-66
2022/01/09 10:13:17;;;;;;;26.80;11.90;;;;;;;0.99;74.06;98932.77;25066;1315;3026742;-64
2022/01/09 10:15:55;;;;;;;23.70;12.80;;;;;;;0.98;74.62;98927.12;25079;1315;3027532;-67
2022/01/09 10:18:50;;;;;;;24.70;11.70;;;;;;;1.02;74.80;98914.58;25104;1315;3058495;-62
2022/01/09 10:21:22;;;;;;;18.10;9.80;;;;;;;1.74;72.92;98912.27;25072;1315;3054277;-63
2022/01/09 10:24:08;;;;;;;22.10;12.10;;;;;;;2.33;70.85;98910.11;25120;1315;3025921;-62
2022/01/09 10:26:39;;;;;;;23.10;12.80;;;;;;;2.28;70.38;98902.67;25111;1315;3055035;-60
2022/01/09 10:29:08;;;;;;;26.80;12.80;;;;;;;2.10;70.96;98902.95;25050;1315;3027167;-60
2022/01/09 10:31:43;;;;;;;23.90;13.00;;;;;;;1.96;71.52;98904.29;25066;1315;3026864;-61
2022/01/09 10:34:12;;;;;;;32.80;16.90;;;;;;;1.86;71.99;98898.07;25120;1315;3027154;-62
2022/01/09 10:36:44;;;;;;;26.70;15.20;;;;;;;1.68;72.83;98891.60;25139;1315;3026501;-63
2022/01/09 10:39:16;;;;;;;24.80;15.40;;;;;;;1.66;72.82;98886.51;25096;1315;3026402;-61
2022/01/09 10:41:45;;;;;;;24.20;15.60;;;;;;;1.59;73.50;98880.70;25089;1315;3027527;-60
2022/01/09 10:44:16;;;;;;;24.60;14.10;;;;;;;1.51;74.01;98877.15;25108;1315;3026312;-62
2022/01/09 10:46:56;;;;;;;22.80;12.20;;;;;;;1.50;73.66;98872.52;25105;1315;3057556;-63
2022/01/09 10:49:36;;;;;;;23.80;12.60;;;;;;;1.48;73.94;98871.05;25102;1315;3050432;-62
2022/01/09 10:52:20;;;;;;;19.00;11.10;;;;;;;1.40;74.61;98874.06;25124;1314;3052841;-63
2022/01/09 10:54:50;;;;;;;21.80;12.50;;;;;;;2.01;73.22;98870.27;25128;1315;3056116;-64
2022/01/09 10:57:20;;;;;;;19.60;12.60;;;;;;;2.66;71.22;98864.47;25077;1315;3026958;-64
2022/01/09 10:59:49;;;;;;;20.40;12.70;;;;;;;2.84;70.21;98865.85;25114;1315;3026495;-63
2022/01/09 11:02:19;;;;;;;23.30;13.50;;;;;;;2.74;70.42;98868.66;25083;1315;3026934;-62
2022/01/09 11:04:48;;;;;;;24.30;14.30;;;;;;;2.57;70.76;98865.49;25095;1315;3070913;-61
2022/01/09 11:07:17;;;;;;;26.60;15.20;;;;;;;2.34;71.61;98861.66;25082;1315;3036339;-62
2022/01/09 11:09:49;;;;;;;23.70;14.60;;;;;;;2.17;72.00;98861.58;25057;1315;3049648;-61
2022/01/09 11:12:20;;;;;;;24.20;13.90;;;;;;;1.90;73.25;98859.09;25073;1315;3027183;-62
2022/01/09 11:14:51;;;;;;;21.80;11.90;;;;;;;1.82;73.34;98853.49;25083;1315;3026780;-62
2022/01/09 11:17:21;;;;;;;24.20;11.60;;;;;;;1.73;74.03;98856.72;25100;1315;3026704;-62
2022/01/09 11:19:50;;;;;;;20.40;12.30;;;;;;;1.82;74.24;98856.42;25093;1315;3029972;-63
2022/01/09 11:22:19;;;;;;;21.90;13.60;;;;;;;1.87;73.80;98855.20;25075;1318;3027322;-62
2022/01/09 11:25:07;;;;;;;17.10;10.30;;;;;;;1.81;74.34;98858.02;25096;1315;3054310;-62